Página principal
METAR-TAF:

METAR-TAF

Aeroportos :

Ulaanbaatar, Mongólia

Aeroporto Internacional Chinggis Khaan

latitude: 47-55N, longitude: 106-52E, altura: 1306 m

Observação actual do tempo

O boletim foi feito há 34 minutos, às 01:30 UTC
Vento 2 kt com direcção variável
Temperatura -1°C
Humidade 64%
Pressão 1022 hPa
Visibilidade: 8000 m

METAR: ZMUB 180130Z VRB01MPS 8000NW NSC M01/M07 Q1022 NOSIG RMK QFE658.8 61 NW MO

Hora: 10:04 (02:04 UTC)

Previsão

O boletim foi feito há 3 horas e 29 minutos, às 22:35 UTC
Previsão válida de 18 às 00 UTC a 19 às 06 UTC
Vento 4 kt com direcção variável
Visibilidade: 6000 m
Nuvens dispersasa uma altura de 10000 ft
Tornando-se
de 18 às 04 UTC a 18 às 06 UTC
Visibilidade 10 km ou mais
Tornando-se
de 18 às 23 UTC a 19 às 01 UTC
Visibilidade: 6000 m
Tornando-se
de 19 às 03 UTC a 19 às 05 UTC
Visibilidade 10 km ou mais

TAF: ZMUB 172235Z 1800/1906 VRB02MPS 6000 SCT100 TX13/1807Z TNM08/1822Z BECMG 1804/1806 9999 NSW BECMG 1823/1901 6000 BECMG 1903/1905 9999 NSW

Observações e previsões do tempo de mais de 4000 aeroportos (mensagens METAR e TAF).

As estações disponíveis são os pontos amarelos e vermelhos sobre o mapa.

Mova o rato sobre o mapa para ver o nome da estação.

Depois clique no ponto para visualizar as observações e previsões meteorológicas.

Para alterar o mapa : clique nos botões verdes com uma cruz preta para aumentar o zoom; no botão verde com uma pitada de zoom; ou nas setas verdes para mapas adjacentes.


METAR-TAF: